createdAt,value
2023-02-02T00:00:49.488Z,87.78
2023-02-02T00:03:18.947Z,87.76
2023-02-02T00:05:48.952Z,88.09
2023-02-02T00:08:24.190Z,87.86
2023-02-02T00:10:53.147Z,87.84
2023-02-02T00:13:22.130Z,87.90
2023-02-02T00:15:54.975Z,87.62
2023-02-02T00:18:24.460Z,88.08
2023-02-02T00:20:54.289Z,87.96
2023-02-02T00:23:30.404Z,88.21
2023-02-02T00:25:59.441Z,87.85
2023-02-02T00:28:28.600Z,87.70
2023-02-02T00:31:00.000Z,87.86
2023-02-02T00:33:29.444Z,87.54
2023-02-02T00:35:58.523Z,87.64
2023-02-02T00:38:27.801Z,88.13
2023-02-02T00:40:57.432Z,88.24
2023-02-02T00:43:26.962Z,88.05
2023-02-02T00:45:54.335Z,87.94
2023-02-02T00:48:26.544Z,88.48
2023-02-02T00:51:02.091Z,88.26
2023-02-02T00:53:32.159Z,88.25
2023-02-02T00:56:01.251Z,88.36
2023-02-02T00:58:35.468Z,88.28
2023-02-02T01:01:04.663Z,87.76
2023-02-02T01:03:35.855Z,87.97
2023-02-02T01:06:05.518Z,87.84
2023-02-02T01:08:34.612Z,88.34
2023-02-02T01:11:10.400Z,88.36
2023-02-02T01:13:44.530Z,88.45
2023-02-02T01:16:14.108Z,88.48
2023-02-02T01:18:45.590Z,88.36
2023-02-02T01:21:19.948Z,88.03
2023-02-02T01:23:49.720Z,88.21
2023-02-02T01:26:19.713Z,88.12
2023-02-02T01:31:35.557Z,88.96
2023-02-02T01:34:11.653Z,89.18
2023-02-02T01:36:45.824Z,88.76
2023-02-02T01:39:15.766Z,88.82
2023-02-02T01:41:44.861Z,89.64
2023-02-02T01:44:43.801Z,90.13
2023-02-02T01:47:18.592Z,89.78
2023-02-02T01:49:50.423Z,89.83
2023-02-02T01:52:23.121Z,89.58
2023-02-02T01:54:55.413Z,89.85
2023-02-02T01:57:29.346Z,90.23
2023-02-02T02:00:00.507Z,90.30
2023-02-02T02:02:47.595Z,90.79
2023-02-02T02:05:25.540Z,90.11
2023-02-02T02:07:58.275Z,89.83
2023-02-02T02:10:32.783Z,89.56
2023-02-02T02:13:02.085Z,89.46
2023-02-02T02:15:50.527Z,89.63
2023-02-02T02:18:31.700Z,89.53
2023-02-02T02:21:48.504Z,89.91
2023-02-02T02:25:00.428Z,90.15
2023-02-02T02:28:13.657Z,89.96
2023-02-02T02:31:24.228Z,90.05
2023-02-02T02:34:02.059Z,89.91
2023-02-02T02:36:41.380Z,90.09
2023-02-02T02:39:16.003Z,90.03
2023-02-02T02:41:54.670Z,90.27
2023-02-02T02:44:24.511Z,89.84
2023-02-02T02:46:54.677Z,89.85
2023-02-02T02:49:26.355Z,90.03
2023-02-02T02:51:57.940Z,90.21
2023-02-02T02:54:35.476Z,89.66
2023-02-02T02:57:45.820Z,89.75
2023-02-02T03:00:27.127Z,89.62
2023-02-02T03:03:03.712Z,89.70
2023-02-02T03:05:45.076Z,89.58
2023-02-02T03:08:21.618Z,89.40
2023-02-02T03:10:58.640Z,89.47
2023-02-02T03:13:28.791Z,89.21
2023-02-02T03:16:03.305Z,88.97
2023-02-02T03:18:34.428Z,89.14
2023-02-02T03:21:12.011Z,89.25
2023-02-02T03:23:41.575Z,88.99
2023-02-02T03:26:10.853Z,88.62
2023-02-02T03:28:40.738Z,88.50
2023-02-02T03:31:15.146Z,88.76
2023-02-02T03:33:45.010Z,88.40
2023-02-02T03:36:15.959Z,88.24
2023-02-02T03:38:50.795Z,88.75
2023-02-02T03:41:20.115Z,88.77
2023-02-02T03:43:49.549Z,88.33
2023-02-02T03:46:18.840Z,88.15
2023-02-02T03:48:48.421Z,88.69
2023-02-02T03:51:19.497Z,88.75
2023-02-02T03:53:49.161Z,88.33
2023-02-02T03:56:18.886Z,88.50
2023-02-02T03:58:48.431Z,88.21
2023-02-02T04:01:22.916Z,88.44
2023-02-02T04:03:52.678Z,87.95
2023-02-02T04:06:24.115Z,88.02
2023-02-02T04:09:03.503Z,87.80
2023-02-02T04:11:32.677Z,87.54
2023-02-02T04:14:01.758Z,87.81
2023-02-02T04:16:34.390Z,87.29
2023-02-02T04:19:03.653Z,87.62
2023-02-02T04:21:34.808Z,88.12
2023-02-02T04:24:03.956Z,87.61
2023-02-02T04:26:33.141Z,88.00
2023-02-02T04:29:02.299Z,88.31
2023-02-02T04:31:31.613Z,87.92
2023-02-02T04:34:01.810Z,87.56
2023-02-02T04:36:30.889Z,87.69
2023-02-02T04:39:01.867Z,88.11
2023-02-02T04:41:31.004Z,88.06
2023-02-02T04:44:06.312Z,88.18
2023-02-02T04:46:35.571Z,87.92
2023-02-02T04:49:04.756Z,87.81
2023-02-02T04:51:33.953Z,87.92
2023-02-02T04:54:05.203Z,88.48
2023-02-02T04:56:34.608Z,88.04
2023-02-02T04:59:03.896Z,88.18
2023-02-02T05:01:36.133Z,88.47
2023-02-02T05:04:08.219Z,88.48
2023-02-02T05:09:15.076Z,88.28
2023-02-02T05:11:45.136Z,88.22
2023-02-02T05:14:16.614Z,88.08
2023-02-02T05:16:45.963Z,88.08
2023-02-02T05:19:16.646Z,87.97
2023-02-02T05:21:53.482Z,88.32
2023-02-02T05:24:24.561Z,88.28
2023-02-02T05:26:57.980Z,88.21
2023-02-02T05:29:33.117Z,88.48
2023-02-02T05:32:02.491Z,88.14
2023-02-02T05:34:32.107Z,88.72
2023-02-02T05:37:01.326Z,88.46
2023-02-02T05:39:32.589Z,88.75
2023-02-02T05:42:01.865Z,89.02
2023-02-02T05:44:31.063Z,88.67
2023-02-02T05:47:00.656Z,89.21
2023-02-02T05:49:29.966Z,89.00
2023-02-02T05:51:59.960Z,89.12
2023-02-02T05:54:29.240Z,89.16
2023-02-02T05:57:02.807Z,89.46
2023-02-02T05:59:32.125Z,89.06
2023-02-02T06:02:01.136Z,88.98
2023-02-02T06:04:38.878Z,88.74
2023-02-02T06:07:08.011Z,88.87
2023-02-02T06:09:37.057Z,88.48
2023-02-02T06:12:24.232Z,88.17
2023-02-02T06:14:52.983Z,87.90
2023-02-02T06:17:21.930Z,87.73
2023-02-02T06:19:51.154Z,87.63
2023-02-02T06:22:20.267Z,87.60
2023-02-02T06:24:49.428Z,87.36
2023-02-02T06:27:24.427Z,87.29
2023-02-02T06:29:53.595Z,87.49
2023-02-02T06:32:22.761Z,86.98
2023-02-02T06:34:52.288Z,86.48
2023-02-02T06:37:21.408Z,86.34
2023-02-02T06:39:51.514Z,86.52
2023-02-02T06:44:59.801Z,85.73
2023-02-02T06:47:29.271Z,85.90
2023-02-02T06:50:03.500Z,85.00
2023-02-02T06:52:32.743Z,85.47
2023-02-02T06:55:01.958Z,84.57
2023-02-02T06:57:39.516Z,84.20
2023-02-02T07:00:10.467Z,83.88
2023-02-02T07:02:39.736Z,83.89
2023-02-02T07:05:10.376Z,83.73
2023-02-02T07:07:44.600Z,82.97
2023-02-02T07:11:11.110Z,82.85
2023-02-02T07:13:06.489Z,82.87
2023-02-02T07:15:36.251Z,83.01
2023-02-02T07:18:05.372Z,82.46
2023-02-02T07:20:35.443Z,82.05
2023-02-02T07:23:05.010Z,81.86
2023-02-02T07:25:34.169Z,81.97
2023-02-02T07:28:05.897Z,80.93
2023-02-02T07:30:35.329Z,79.86
2023-02-02T07:33:04.531Z,80.32
2023-02-02T07:35:33.807Z,79.69
2023-02-02T07:38:02.919Z,79.61
2023-02-02T07:40:32.018Z,79.47
2023-02-02T07:43:02.310Z,79.79
2023-02-02T07:45:33.532Z,79.27
2023-02-02T07:48:08.343Z,79.08
2023-02-02T07:50:37.479Z,78.43
2023-02-02T07:53:06.637Z,78.11
2023-02-02T07:55:40.840Z,77.74
2023-02-02T07:58:10.419Z,78.41
2023-02-02T08:00:41.432Z,78.25
2023-02-02T08:03:15.695Z,78.79
2023-02-02T08:05:44.883Z,79.40
2023-02-02T08:08:13.988Z,79.22
2023-02-02T08:10:50.360Z,78.80
2023-02-02T08:13:19.897Z,78.45
2023-02-02T08:15:56.006Z,78.55
2023-02-02T08:18:25.305Z,78.56
2023-02-02T08:20:54.613Z,78.76
2023-02-02T08:23:30.457Z,78.32
2023-02-02T08:26:08.534Z,78.16
2023-02-02T08:28:38.496Z,78.22
2023-02-02T08:31:12.311Z,78.43
2023-02-02T08:33:46.614Z,78.27
2023-02-02T08:36:16.958Z,77.89
2023-02-02T08:38:51.751Z,77.88
2023-02-02T08:41:23.383Z,77.71
2023-02-02T08:43:57.716Z,77.25
2023-02-02T08:46:29.039Z,76.98
2023-02-02T08:48:58.524Z,76.79
2023-02-02T08:51:27.576Z,76.22
2023-02-02T08:53:56.897Z,76.19
2023-02-02T08:59:08.040Z,75.96
2023-02-02T09:01:39.290Z,75.01
2023-02-02T09:04:10.362Z,75.05
2023-02-02T09:06:41.447Z,74.75
2023-02-02T09:09:20.730Z,74.65
2023-02-02T09:11:49.902Z,74.57
2023-02-02T09:14:19.010Z,74.95
2023-02-02T09:16:50.565Z,74.71
2023-02-02T09:19:19.666Z,74.97
2023-02-02T09:21:50.799Z,74.78
2023-02-02T09:24:20.366Z,74.83
2023-02-02T09:26:49.527Z,74.52
2023-02-02T09:29:24.897Z,73.81
2023-02-02T09:31:58.328Z,74.33
2023-02-02T09:34:27.577Z,73.98
2023-02-02T09:36:56.753Z,73.20
2023-02-02T09:39:31.000Z,71.84
2023-02-02T09:42:20.655Z,71.49
2023-02-02T09:45:02.153Z,70.24
2023-02-02T09:47:59.000Z,69.98
2023-02-02T09:50:41.762Z,68.84
2023-02-02T09:53:22.714Z,70.05
2023-02-02T09:55:59.602Z,70.77
2023-02-02T09:58:33.295Z,70.75
2023-02-02T10:01:08.087Z,70.33
2023-02-02T10:03:53.575Z,70.48
2023-02-02T10:06:32.784Z,71.04
2023-02-02T10:09:10.936Z,70.80
2023-02-02T10:11:47.331Z,70.58
2023-02-02T10:14:22.149Z,70.16
2023-02-02T10:16:54.361Z,70.34
2023-02-02T10:19:30.251Z,69.55
2023-02-02T10:22:08.641Z,69.03
2023-02-02T10:24:39.097Z,69.39
2023-02-02T10:27:17.204Z,69.21
2023-02-02T10:29:55.320Z,68.02
2023-02-02T10:32:27.581Z,69.07
2023-02-02T10:35:23.519Z,69.06
2023-02-02T10:38:03.265Z,69.56
2023-02-02T10:40:44.406Z,68.69
2023-02-02T10:43:48.248Z,69.24
2023-02-02T10:46:22.121Z,69.17
2023-02-02T10:48:52.597Z,69.07
2023-02-02T10:51:28.824Z,69.29
2023-02-02T10:54:00.705Z,69.87
2023-02-02T10:56:38.120Z,69.93
2023-02-02T10:59:11.753Z,70.18
2023-02-02T11:01:41.279Z,70.19
2023-02-02T11:04:24.684Z,69.64
2023-02-02T11:06:56.258Z,69.06
2023-02-02T11:09:29.412Z,68.81
2023-02-02T11:12:05.692Z,68.31
2023-02-02T11:14:47.816Z,68.18
2023-02-02T11:17:22.458Z,66.97
2023-02-02T11:22:35.240Z,68.68
2023-02-02T11:25:07.420Z,69.38
2023-02-02T11:27:41.479Z,69.21
2023-02-02T11:30:24.204Z,68.66
2023-02-02T11:32:55.323Z,68.60
2023-02-02T11:35:26.526Z,68.78
2023-02-02T11:38:01.363Z,68.90
2023-02-02T11:40:37.629Z,69.06
2023-02-02T11:43:17.485Z,68.40
2023-02-02T11:45:54.832Z,68.43
2023-02-02T11:48:26.861Z,68.11
2023-02-02T11:50:58.784Z,68.14
2023-02-02T11:53:32.117Z,68.80
2023-02-02T11:56:12.002Z,69.29
2023-02-02T11:58:50.165Z,69.28
2023-02-02T12:01:31.833Z,68.95
2023-02-02T12:04:03.631Z,69.13
2023-02-02T12:09:23.631Z,67.94
2023-02-02T12:12:04.441Z,68.29
2023-02-02T12:14:44.803Z,68.43
2023-02-02T12:17:28.105Z,68.11
2023-02-02T12:20:09.379Z,68.11
2023-02-02T12:23:17.230Z,68.18
2023-02-02T12:26:16.713Z,68.07
2023-02-02T12:28:58.226Z,68.23
2023-02-02T12:31:40.850Z,68.34
2023-02-02T12:34:19.908Z,68.46
2023-02-02T12:36:55.597Z,68.74
2023-02-02T12:39:45.356Z,68.75
2023-02-02T12:42:39.045Z,68.87
2023-02-02T12:45:24.480Z,68.86
2023-02-02T12:54:33.552Z,69.20
2023-02-02T12:57:04.140Z,69.53
2023-02-02T13:00:06.743Z,70.04
2023-02-02T13:02:55.125Z,70.02
2023-02-02T13:05:46.347Z,70.27
2023-02-02T13:08:22.131Z,70.21
2023-02-02T13:11:05.489Z,70.53
2023-02-02T13:13:38.696Z,70.97
2023-02-02T13:16:16.097Z,70.72
2023-02-02T13:18:53.134Z,70.82
2023-02-02T13:21:26.033Z,71.16
2023-02-02T13:24:05.041Z,71.25
2023-02-02T13:26:42.258Z,71.35
2023-02-02T13:29:29.076Z,71.57
2023-02-02T13:32:04.414Z,71.81
2023-02-02T13:34:43.224Z,71.72
2023-02-02T13:37:19.875Z,71.88
2023-02-02T13:39:55.651Z,72.14
2023-02-02T13:42:38.139Z,72.24
2023-02-02T13:45:21.323Z,73.05
2023-02-02T13:48:04.978Z,72.93
2023-02-02T13:50:46.363Z,72.93
2023-02-02T13:53:39.405Z,73.32
2023-02-02T13:56:25.721Z,73.14
2023-02-02T13:59:14.065Z,73.43
2023-02-02T14:01:47.165Z,73.10
2023-02-02T14:04:23.608Z,73.37
2023-02-02T14:06:59.408Z,73.40
2023-02-02T14:09:31.736Z,73.96
2023-02-02T14:12:06.496Z,74.21
2023-02-02T14:14:48.757Z,74.72
2023-02-02T14:17:47.757Z,74.46
2023-02-02T14:20:43.393Z,74.74
2023-02-02T14:23:42.353Z,74.41
2023-02-02T14:26:16.190Z,74.39
2023-02-02T14:28:48.555Z,74.81
2023-02-02T14:31:44.964Z,75.41
2023-02-02T14:34:33.350Z,75.37
2023-02-02T14:37:40.502Z,76.07
2023-02-02T14:40:31.784Z,76.53
2023-02-02T14:43:31.297Z,76.19
2023-02-02T14:46:39.714Z,77.06
2023-02-02T14:49:18.698Z,76.68
2023-02-02T14:51:55.179Z,77.14
2023-02-02T14:54:29.415Z,76.80
2023-02-02T14:57:02.736Z,76.94
2023-02-02T14:59:37.146Z,77.29
2023-02-02T15:02:18.881Z,78.30
2023-02-02T15:04:48.904Z,77.87
2023-02-02T15:07:45.341Z,77.73
2023-02-02T15:10:14.532Z,77.09
2023-02-02T15:12:46.821Z,77.15
2023-02-02T15:15:25.449Z,77.13
2023-02-02T15:18:13.767Z,77.50
2023-02-02T15:20:48.262Z,77.41
2023-02-02T15:23:28.391Z,78.11
2023-02-02T15:26:02.951Z,77.91
2023-02-02T15:28:44.856Z,78.13
2023-02-02T15:31:22.438Z,77.97
2023-02-02T15:33:57.576Z,78.13
2023-02-02T15:36:36.026Z,77.46
2023-02-02T15:39:12.861Z,77.83
2023-02-02T15:41:46.030Z,77.66
2023-02-02T15:44:30.125Z,77.76
2023-02-02T15:46:59.485Z,77.27
2023-02-02T15:49:35.897Z,77.67
2023-02-02T15:52:14.827Z,77.65
2023-02-02T15:54:54.572Z,77.50
2023-02-02T15:57:34.008Z,77.40
2023-02-02T16:00:24.078Z,77.32
2023-02-02T16:02:57.171Z,77.63
2023-02-02T16:05:45.601Z,77.84
2023-02-02T16:08:19.665Z,77.02
2023-02-02T16:10:50.304Z,77.22
2023-02-02T16:13:30.982Z,77.68
2023-02-02T16:16:02.298Z,77.98
2023-02-02T16:18:37.603Z,77.68
2023-02-02T16:21:16.881Z,77.79
2023-02-02T16:23:46.782Z,77.52
2023-02-02T16:26:19.063Z,78.18
2023-02-02T16:28:53.271Z,78.19
2023-02-02T16:31:22.537Z,77.80
2023-02-02T16:33:53.214Z,77.77
2023-02-02T16:36:31.261Z,77.87
2023-02-02T16:39:01.174Z,77.89
2023-02-02T16:41:34.007Z,77.91
2023-02-02T16:44:31.314Z,78.68
2023-02-02T16:47:01.759Z,78.59
2023-02-02T16:49:31.936Z,78.85
2023-02-02T16:52:17.634Z,79.47
2023-02-02T16:54:54.845Z,79.73
2023-02-02T16:57:29.397Z,80.71
2023-02-02T17:00:01.800Z,80.25
2023-02-02T17:02:37.226Z,80.39
2023-02-02T17:05:17.780Z,80.09
2023-02-02T17:08:05.265Z,79.64
2023-02-02T17:10:36.887Z,79.21
2023-02-02T17:13:40.032Z,79.96
2023-02-02T17:16:20.588Z,80.22
2023-02-02T17:18:55.036Z,80.40
2023-02-02T17:21:27.354Z,80.43
2023-02-02T17:23:58.835Z,79.89
2023-02-02T17:26:28.100Z,80.21
2023-02-02T17:29:03.126Z,80.02
2023-02-02T17:31:32.930Z,79.73
2023-02-02T17:34:02.450Z,80.00
2023-02-02T17:36:31.779Z,80.14
2023-02-02T17:39:02.826Z,80.40
2023-02-02T17:41:37.606Z,80.45
2023-02-02T17:44:08.877Z,80.39
2023-02-02T17:46:43.822Z,80.33
2023-02-02T17:49:13.082Z,80.78
2023-02-02T17:51:43.320Z,80.58
2023-02-02T17:54:16.460Z,80.74
2023-02-02T17:56:48.884Z,80.83
2023-02-02T17:59:18.332Z,81.17
2023-02-02T18:01:47.429Z,80.75
2023-02-02T18:04:17.356Z,81.18
2023-02-02T18:06:46.424Z,80.80
2023-02-02T18:09:17.838Z,80.38
2023-02-02T18:11:49.369Z,80.58
2023-02-02T18:14:19.297Z,80.63
2023-02-02T18:16:48.562Z,80.54
2023-02-02T18:19:19.262Z,80.30
2023-02-02T18:21:48.618Z,80.53
2023-02-02T18:24:19.769Z,80.52
2023-02-02T18:26:49.158Z,80.68
2023-02-02T18:29:18.332Z,80.52
2023-02-02T18:31:48.088Z,81.05
2023-02-02T18:34:17.181Z,80.83
2023-02-02T18:36:46.346Z,81.08
2023-02-02T18:39:16.095Z,80.84
2023-02-02T18:41:47.487Z,81.37
2023-02-02T18:44:16.810Z,81.15
2023-02-02T18:46:46.122Z,81.76
2023-02-02T18:49:15.532Z,81.64
2023-02-02T18:51:45.889Z,81.47
2023-02-02T18:54:15.307Z,81.81
2023-02-02T18:56:46.379Z,81.76
2023-02-02T18:59:21.198Z,81.75
2023-02-02T19:01:50.429Z,81.50
2023-02-02T19:04:19.633Z,82.71
2023-02-02T19:07:01.868Z,83.42
2023-02-02T19:09:31.143Z,83.15
2023-02-02T19:12:14.556Z,84.40
2023-02-02T19:14:44.232Z,83.15
2023-02-02T19:17:24.065Z,83.65
2023-02-02T19:19:54.346Z,83.60
2023-02-02T19:22:29.936Z,83.34
2023-02-02T19:25:00.925Z,83.61
2023-02-02T19:27:37.701Z,83.45
2023-02-02T19:30:17.864Z,84.87
2023-02-02T19:32:47.367Z,84.13
2023-02-02T19:35:21.826Z,85.09
2023-02-02T19:37:57.206Z,85.11
2023-02-02T19:40:27.509Z,85.48
2023-02-02T19:43:10.652Z,87.01
2023-02-02T19:45:41.128Z,86.46
2023-02-02T19:48:18.619Z,87.26
2023-02-02T19:50:48.972Z,87.86
2023-02-02T19:53:22.655Z,88.67
2023-02-02T19:55:53.212Z,88.59
2023-02-02T19:58:36.969Z,89.80
2023-02-02T20:01:20.322Z,89.12
2023-02-02T20:03:55.627Z,89.05
2023-02-02T20:06:30.010Z,89.33
2023-02-02T20:09:03.285Z,88.91
2023-02-02T20:11:36.932Z,89.15
2023-02-02T20:14:33.846Z,90.64
2023-02-02T20:17:07.377Z,89.67
2023-02-02T20:19:42.355Z,90.09
2023-02-02T20:22:25.524Z,91.12
2023-02-02T20:24:56.127Z,90.37
2023-02-02T20:27:28.056Z,90.07
2023-02-02T20:30:09.989Z,91.53
2023-02-02T20:32:41.840Z,89.79
2023-02-02T20:35:21.840Z,91.64
2023-02-02T20:37:55.305Z,89.53
2023-02-02T20:40:27.615Z,89.42
2023-02-02T20:42:57.882Z,89.54
2023-02-02T20:45:34.201Z,89.99
2023-02-02T20:48:03.403Z,89.81
2023-02-02T20:50:33.221Z,90.45
2023-02-02T20:53:02.558Z,90.43
2023-02-02T20:55:32.844Z,89.97
2023-02-02T20:58:07.751Z,89.97
2023-02-02T21:00:47.321Z,90.50
2023-02-02T21:03:16.812Z,89.97
2023-02-02T21:05:47.002Z,89.79
2023-02-02T21:08:16.433Z,89.82
2023-02-02T21:10:45.727Z,90.61
2023-02-02T21:13:15.095Z,90.24
2023-02-02T21:15:46.262Z,90.60
2023-02-02T21:18:15.682Z,90.48
2023-02-02T21:20:44.985Z,90.79
2023-02-02T21:23:14.260Z,90.69
2023-02-02T21:25:43.461Z,90.36
2023-02-02T21:28:12.878Z,90.31
2023-02-02T21:30:42.267Z,90.68
2023-02-02T21:33:13.651Z,90.69
2023-02-02T21:35:48.094Z,90.46
2023-02-02T21:38:19.929Z,90.38
2023-02-02T21:40:50.073Z,91.34
2023-02-02T21:43:20.179Z,90.70
2023-02-02T21:45:57.895Z,90.45
2023-02-02T21:48:34.824Z,91.22
2023-02-02T21:51:25.242Z,91.30
2023-02-02T21:53:54.592Z,90.64
2023-02-02T21:56:29.017Z,91.02
2023-02-02T21:59:01.326Z,91.00
2023-02-02T22:01:36.052Z,91.53
2023-02-02T22:04:17.022Z,91.20
2023-02-02T22:06:52.977Z,90.95
2023-02-02T22:09:25.073Z,90.94
2023-02-02T22:11:56.222Z,91.52
2023-02-02T22:14:33.447Z,90.80
2023-02-02T22:17:07.329Z,90.87
2023-02-02T22:19:41.074Z,90.61
2023-02-02T22:25:08.247Z,90.77
2023-02-02T22:27:44.739Z,90.66
2023-02-02T22:30:22.493Z,90.45
2023-02-02T22:32:51.706Z,90.46
2023-02-02T22:35:28.607Z,90.50
2023-02-02T22:37:58.183Z,90.27
2023-02-02T22:40:28.099Z,90.50
2023-02-02T22:43:00.482Z,90.20
2023-02-02T22:45:29.983Z,90.46
2023-02-02T22:47:59.702Z,90.16
2023-02-02T22:50:34.895Z,90.43
2023-02-02T22:53:04.815Z,89.96
2023-02-02T22:55:34.879Z,90.37
2023-02-02T22:58:04.297Z,90.24
2023-02-02T23:00:34.705Z,90.33
2023-02-02T23:03:08.948Z,89.98
2023-02-02T23:05:40.031Z,89.60
2023-02-02T23:08:09.310Z,89.35
2023-02-02T23:10:38.421Z,89.21
2023-02-02T23:13:07.778Z,89.54
2023-02-02T23:15:47.466Z,89.42
2023-02-02T23:18:16.603Z,89.50
2023-02-02T23:20:53.458Z,89.79
2023-02-02T23:23:27.335Z,90.40
2023-02-02T23:25:56.823Z,89.91
2023-02-02T23:28:26.046Z,89.53
2023-02-02T23:30:58.728Z,89.34
2023-02-02T23:33:27.991Z,89.82
2023-02-02T23:35:59.144Z,89.85
2023-02-02T23:38:28.373Z,89.71
2023-02-02T23:40:57.885Z,89.35
2023-02-02T23:43:27.272Z,89.52
2023-02-02T23:45:56.652Z,89.69
2023-02-02T23:48:26.671Z,89.71
2023-02-02T23:50:56.061Z,90.13
2023-02-02T23:53:27.383Z,90.13
2023-02-02T23:58:42.391Z,90.28
